Kirriemuir, United Kingdom
Current Conditions -  °F | °C
As of 11:20 AM on Thursday 18 Dec 2014 (Local Time) from EGPN Reporting Station
Drizzle Drizzle  
Wind Chill: 40°   Ceiling: 4300
Heat Index: 45°   Visibility: 4mi
Dew Point: 45°   Wind: 8mph
Humidity: 100%   Direction: 250°WSW
Pressure: 29.26"   Gusts: NA
Location:  56.67°N, 3°W
Report Text: EGPN 181120Z 25007KT 6000 -DZ SCT032 BKN043 07/07 Q0991
Loading
Personal Weather Stations






























Interactive Weather Map New forecast layout! Learn more

10-Day Weather Forecast

Advertisements
Track Severe Weather on mobile